Time;durP1;ratioP1;P1;durP2;ratioP2;P2;SDS_P1;SDS_P2;PMS_P1;PMS_P2;Temp;Humidity;BMP_temperature;BMP_pressure;BME280_temperature;BME280_humidity;BME280_pressure;Samples;Min_cycle;Max_cycle;Signal;HPM_P1;HPM_P2
2022/12/03 00:00:04;;;;;;;28.60;14.60;;;;;2.30;101618.00;;;;10449300;28;20190;-78
2022/12/03 00:05:13;;;;;;;30.00;15.63;;;;;2.30;101607.00;;;;10471728;28;20189;-78
2022/12/03 00:10:15;;;;;;;31.90;15.97;;;;;2.30;101606.00;;;;10450073;28;20207;-78
2022/12/03 00:15:17;;;;;;;27.70;16.57;;;;;2.30;101607.00;;;;10413741;28;20194;-78
2022/12/03 00:20:21;;;;;;;27.73;15.37;;;;;2.30;101619.00;;;;10444577;28;20212;-78
2022/12/03 00:25:23;;;;;;;27.43;15.93;;;;;2.20;101607.00;;;;10448675;28;20275;-78
2022/12/03 00:30:25;;;;;;;31.63;16.30;;;;;2.20;101605.00;;;;10402919;28;20202;-78
2022/12/03 00:35:26;;;;;;;23.90;14.37;;;;;2.20;101597.00;;;;10447822;28;20198;-78
2022/12/03 00:40:28;;;;;;;28.30;15.70;;;;;2.20;101598.00;;;;10419109;28;20233;-78
2022/12/03 00:45:30;;;;;;;27.50;14.67;;;;;2.10;101595.00;;;;10441900;28;20201;-78
2022/12/03 00:50:32;;;;;;;27.93;14.80;;;;;2.10;101601.00;;;;10439699;28;20688;-78
2022/12/03 00:55:34;;;;;;;29.77;15.27;;;;;2.10;101590.00;;;;10401376;28;20199;-78
2022/12/03 01:00:36;;;;;;;29.73;15.90;;;;;2.10;101590.00;;;;10401584;28;20233;-78
2022/12/03 01:05:38;;;;;;;27.30;15.07;;;;;2.10;101590.00;;;;10463346;28;20216;-78
2022/12/03 01:10:40;;;;;;;29.37;16.33;;;;;2.10;101590.00;;;;10483749;28;20196;-78
2022/12/03 01:15:42;;;;;;;28.87;15.67;;;;;2.10;101595.00;;;;10423236;28;20190;-78
2022/12/03 01:20:44;;;;;;;30.97;15.13;;;;;2.10;101593.00;;;;10426947;28;20236;-78
2022/12/03 01:25:46;;;;;;;30.20;15.63;;;;;2.10;101597.00;;;;10417166;28;20232;-78
2022/12/03 01:36:11;;;;;;;28.77;14.63;;;;;2.10;101595.00;;;;10476816;28;20182;-78
2022/12/03 01:41:16;;;;;;;31.37;16.60;;;;;2.10;101590.00;;;;10417491;28;20273;-78
2022/12/03 01:46:20;;;;;;;30.73;15.57;;;;;2.10;101593.00;;;;10417416;28;20592;-78
2022/12/03 01:51:22;;;;;;;32.93;16.87;;;;;2.10;101596.00;;;;10432813;28;20222;-78
2022/12/03 01:56:24;;;;;;;25.27;14.63;;;;;2.10;101589.00;;;;10415755;28;20229;-78
2022/12/03 02:01:26;;;;;;;29.83;15.50;;;;;2.10;101585.00;;;;10432019;28;20661;-78
2022/12/03 02:06:29;;;;;;;25.37;14.13;;;;;2.00;101593.00;;;;10438961;28;20210;-78
2022/12/03 02:11:36;;;;;;;27.47;14.53;;;;;2.00;101592.00;;;;10445141;28;20272;-78
2022/12/03 02:16:39;;;;;;;32.23;15.03;;;;;2.00;101594.00;;;;10416876;28;20269;-78
2022/12/03 02:22:08;;;;;;;28.93;14.67;;;;;1.90;101585.00;;;;10432915;28;20182;-77
2022/12/03 02:27:10;;;;;;;29.30;13.97;;;;;1.90;101571.00;;;;10455451;28;20232;-77
2022/12/03 02:32:12;;;;;;;30.07;15.40;;;;;1.90;101586.00;;;;10449848;28;20339;-78
2022/12/03 02:37:35;;;;;;;29.83;14.60;;;;;1.80;101577.00;;;;10507419;28;20197;-77
2022/12/03 02:42:38;;;;;;;28.63;14.63;;;;;1.80;101575.00;;;;10484311;28;20251;-78
2022/12/03 02:47:52;;;;;;;29.90;15.93;;;;;1.80;101585.00;;;;10413982;28;20205;-78
2022/12/03 02:52:56;;;;;;;28.77;15.17;;;;;1.80;101581.00;;;;10418998;28;20321;-77
2022/12/03 02:58:01;;;;;;;30.87;15.53;;;;;1.80;101573.00;;;;10462214;28;20190;-78
2022/12/03 03:03:05;;;;;;;34.87;17.13;;;;;1.80;101572.00;;;;10437229;28;20284;-78
2022/12/03 03:08:08;;;;;;;31.37;17.07;;;;;1.80;101578.00;;;;10416754;28;20641;-78
2022/12/03 03:13:15;;;;;;;34.17;16.87;;;;;1.80;101577.00;;;;10475085;28;20198;-78
2022/12/03 03:18:17;;;;;;;33.93;16.47;;;;;1.90;101572.00;;;;10430091;28;20261;-78
2022/12/03 03:23:22;;;;;;;32.70;17.23;;;;;1.90;101567.00;;;;10420169;28;20244;-78
2022/12/03 03:28:25;;;;;;;31.10;14.23;;;;;1.90;101569.00;;;;10426038;28;20220;-78
2022/12/03 03:33:27;;;;;;;30.70;15.50;;;;;1.90;101561.00;;;;10425334;28;20193;-77
2022/12/03 03:38:30;;;;;;;26.33;13.97;;;;;2.00;101560.00;;;;10477573;28;20186;-78
2022/12/03 03:43:34;;;;;;;29.50;16.47;;;;;2.00;101564.00;;;;10434866;28;20190;-78
2022/12/03 03:48:36;;;;;;;28.87;15.23;;;;;2.00;101560.00;;;;10402156;28;20241;-78
2022/12/03 03:53:42;;;;;;;27.23;14.67;;;;;2.00;101562.00;;;;10419213;28;20209;-77
2022/12/03 03:58:44;;;;;;;26.97;14.63;;;;;2.10;101558.00;;;;10404188;28;20217;-78
2022/12/03 04:03:45;;;;;;;31.67;17.03;;;;;2.00;101550.00;;;;10482159;28;20217;-78
2022/12/03 04:08:47;;;;;;;27.50;14.80;;;;;2.00;101551.00;;;;10483104;28;20575;-78
2022/12/03 04:13:49;;;;;;;25.57;14.93;;;;;2.00;101550.00;;;;10459464;28;20632;-77
2022/12/03 04:18:51;;;;;;;31.60;15.70;;;;;2.10;101558.00;;;;10420400;28;20221;-78
2022/12/03 04:23:53;;;;;;;29.50;15.67;;;;;2.10;101547.00;;;;10401841;28;20201;-78
2022/12/03 04:28:55;;;;;;;25.43;14.07;;;;;2.00;101540.00;;;;10452038;28;20195;-77
2022/12/03 04:39:17;;;;;;;31.23;16.67;;;;;1.90;101553.00;;;;10458631;28;20185;-78
2022/12/03 04:44:37;;;;;;;26.63;14.97;;;;;1.90;101545.00;;;;10434194;28;20729;-78
2022/12/03 04:49:42;;;;;;;28.07;15.73;;;;;1.90;101535.00;;;;10488557;28;20691;-78
2022/12/03 04:54:44;;;;;;;23.97;14.30;;;;;1.80;101533.00;;;;10474375;28;20684;-78
2022/12/03 04:59:46;;;;;;;24.40;12.97;;;;;1.70;101532.00;;;;10443934;28;20213;-77
2022/12/03 05:04:48;;;;;;;27.97;14.77;;;;;1.50;101532.00;;;;10469762;28;20193;-77
2022/12/03 05:09:50;;;;;;;27.17;13.77;;;;;1.40;101547.00;;;;10471700;28;20202;-77
2022/12/03 05:14:52;;;;;;;27.97;15.27;;;;;1.30;101537.00;;;;10440362;28;20191;-78
2022/12/03 05:25:15;;;;;;;27.33;14.00;;;;;1.20;101533.00;;;;10431998;28;20198;-77
2022/12/03 05:30:17;;;;;;;27.23;13.97;;;;;1.10;101527.00;;;;10486439;28;20256;-78
2022/12/03 05:35:19;;;;;;;26.70;14.30;;;;;1.00;101526.00;;;;10457248;28;20243;-78
2022/12/03 05:40:21;;;;;;;31.43;15.23;;;;;1.00;101520.00;;;;10472962;28;20186;-77
2022/12/03 05:45:50;;;;;;;30.40;15.43;;;;;1.00;101514.00;;;;10409864;28;20202;-77
2022/12/03 05:50:52;;;;;;;30.77;15.23;;;;;1.00;101504.00;;;;10432311;28;20218;-78
2022/12/03 05:55:54;;;;;;;29.10;14.63;;;;;1.00;101509.00;;;;10455648;28;20245;-78
2022/12/03 06:00:55;;;;;;;31.20;15.53;;;;;1.10;101509.00;;;;10432453;28;20206;-78
2022/12/03 06:05:57;;;;;;;33.50;16.27;;;;;1.10;101512.00;;;;10469282;28;20208;-77
2022/12/03 06:11:00;;;;;;;30.63;16.30;;;;;1.10;101514.00;;;;10459503;28;20210;-77
2022/12/03 06:16:02;;;;;;;31.37;15.27;;;;;1.00;101515.00;;;;10458957;28;20256;-77
2022/12/03 06:21:04;;;;;;;33.23;17.10;;;;;1.10;101514.00;;;;10479814;28;20224;-77
2022/12/03 06:26:06;;;;;;;34.30;16.90;;;;;1.20;101516.00;;;;10463777;28;20210;-77
2022/12/03 06:31:08;;;;;;;36.20;17.30;;;;;1.30;101511.00;;;;10443458;28;20620;-78
2022/12/03 06:36:10;;;;;;;35.40;17.80;;;;;1.40;101516.00;;;;10472849;28;20220;-77
2022/12/03 06:41:11;;;;;;;34.03;16.37;;;;;1.50;101520.00;;;;10505489;28;20652;-78
2022/12/03 06:46:13;;;;;;;37.60;17.83;;;;;1.60;101519.00;;;;10448874;28;20201;-77
2022/12/03 06:51:15;;;;;;;36.23;18.37;;;;;1.70;101519.00;;;;10437917;28;20210;-78
2022/12/03 06:56:17;;;;;;;35.10;17.00;;;;;1.70;101516.00;;;;10437871;28;20190;-78
2022/12/03 07:01:23;;;;;;;36.33;16.87;;;;;1.70;101514.00;;;;10446308;28;20237;-77
2022/12/03 07:06:25;;;;;;;31.60;16.60;;;;;1.80;101508.00;;;;10478676;28;20205;-77
2022/12/03 07:11:38;;;;;;;37.40;17.87;;;;;1.80;101509.00;;;;10439961;28;20237;-77
2022/12/03 07:16:42;;;;;;;33.43;17.30;;;;;1.80;101514.00;;;;10435858;28;20194;-78
2022/12/03 07:21:44;;;;;;;36.30;17.13;;;;;1.90;101516.00;;;;10461489;28;20200;-77
2022/12/03 07:26:46;;;;;;;38.77;18.73;;;;;1.90;101508.00;;;;10474299;28;20201;-78
2022/12/03 07:31:47;;;;;;;36.67;16.97;;;;;1.90;101507.00;;;;10455097;28;20220;-78
2022/12/03 07:36:49;;;;;;;35.63;18.73;;;;;2.00;101501.00;;;;10451341;28;20273;-77
2022/12/03 07:41:51;;;;;;;35.47;17.17;;;;;2.00;101499.00;;;;10444029;28;20189;-77
2022/12/03 07:46:53;;;;;;;35.73;17.93;;;;;2.00;101503.00;;;;10459890;28;20678;-78
2022/12/03 07:51:56;;;;;;;33.10;18.47;;;;;2.10;101509.00;;;;10476434;28;20190;-77
2022/12/03 07:56:58;;;;;;;31.27;16.83;;;;;2.10;101504.00;;;;10453943;28;20197;-78
2022/12/03 08:02:02;;;;;;;36.57;17.87;;;;;2.10;101496.00;;;;10459225;28;20213;-78
2022/12/03 08:07:05;;;;;;;36.33;17.83;;;;;2.20;101509.00;;;;10476022;28;20213;-78
2022/12/03 08:12:15;;;;;;;39.50;18.73;;;;;2.20;101507.00;;;;10445982;28;20197;-77
2022/12/03 08:17:20;;;;;;;38.63;19.07;;;;;2.30;101505.00;;;;10457418;28;20192;-77
2022/12/03 08:22:23;;;;;;;38.83;18.80;;;;;2.40;101503.00;;;;10407382;28;20210;-77
2022/12/03 08:27:25;;;;;;;42.30;18.20;;;;;2.50;101500.00;;;;10409417;28;20562;-77
2022/12/03 08:32:27;;;;;;;33.30;18.37;;;;;2.50;101491.00;;;;10407963;28;20194;-77
2022/12/03 08:37:29;;;;;;;33.23;16.93;;;;;2.60;101502.00;;;;10428969;28;20724;-77
2022/12/03 08:42:41;;;;;;;39.43;18.80;;;;;2.60;101498.00;;;;10456833;28;20773;-77
2022/12/03 08:47:43;;;;;;;42.73;19.80;;;;;2.70;101494.00;;;;10426217;28;20206;-77
2022/12/03 08:52:45;;;;;;;38.43;19.00;;;;;2.80;101493.00;;;;10456275;28;20611;-77
2022/12/03 08:57:47;;;;;;;36.43;19.43;;;;;2.90;101499.00;;;;10471774;28;20597;-77
2022/12/03 09:03:00;;;;;;;39.57;18.60;;;;;3.00;101502.00;;;;10468698;28;20210;-77
2022/12/03 09:08:02;;;;;;;40.17;18.87;;;;;3.00;101501.00;;;;10461206;28;20204;-77
2022/12/03 09:13:04;;;;;;;39.97;18.73;;;;;3.00;101498.00;;;;10458382;28;20186;-77
2022/12/03 09:18:06;;;;;;;40.90;19.60;;;;;3.10;101494.00;;;;10440745;28;20219;-78
2022/12/03 09:23:08;;;;;;;39.57;20.33;;;;;3.40;101487.00;;;;10472744;28;20201;-77
2022/12/03 09:28:10;;;;;;;39.50;21.10;;;;;3.50;101494.00;;;;10481708;28;20205;-77
2022/12/03 09:33:12;;;;;;;37.10;19.17;;;;;3.50;101485.00;;;;10447367;28;20198;-78
2022/12/03 09:38:14;;;;;;;40.37;20.90;;;;;3.40;101482.00;;;;10423466;28;20589;-78
2022/12/03 09:43:17;;;;;;;37.80;20.07;;;;;3.50;101477.00;;;;10473330;28;20198;-78
2022/12/03 09:48:19;;;;;;;38.40;19.97;;;;;3.60;101477.00;;;;10474634;28;20213;-78
2022/12/03 09:53:25;;;;;;;38.77;19.23;;;;;3.60;101473.00;;;;10428306;28;20197;-78
2022/12/03 09:58:28;;;;;;;42.50;18.40;;;;;3.70;101468.00;;;;10440211;28;20201;-78
2022/12/03 10:03:38;;;;;;;37.67;20.43;;;;;3.70;101471.00;;;;10456712;28;20217;-77
2022/12/03 10:08:41;;;;;;;40.77;20.83;;;;;3.70;101463.00;;;;10463696;28;20266;-78
2022/12/03 10:13:43;;;;;;;36.20;19.63;;;;;3.80;101465.00;;;;10440908;28;20224;-78
2022/12/03 10:18:51;;;;;;;37.77;18.93;;;;;3.80;101445.00;;;;10451108;28;20190;-78
2022/12/03 10:24:15;;;;;;;32.77;18.57;;;;;3.70;101443.00;;;;10439585;28;20209;-78
2022/12/03 10:29:26;;;;;;;38.50;17.80;;;;;3.50;101445.00;;;;10414317;28;20198;-78
2022/12/03 10:34:37;;;;;;;40.47;19.40;;;;;3.50;101436.00;;;;10425913;28;20228;-78
2022/12/03 10:39:54;;;;;;;35.17;17.87;;;;;3.50;101431.00;;;;10436494;28;20191;-78
2022/12/03 10:45:17;;;;;;;37.10;20.37;;;;;3.40;101423.00;;;;10414544;28;20190;-78
2022/12/03 10:50:19;;;;;;;33.60;18.37;;;;;3.40;101419.00;;;;10455029;28;20197;-78
2022/12/03 10:55:21;;;;;;;40.73;18.67;;;;;3.60;101417.00;;;;10427622;28;20190;-78
2022/12/03 11:00:23;;;;;;;39.93;19.47;;;;;3.70;101415.00;;;;10476952;28;20267;-78
2022/12/03 11:05:26;;;;;;;39.13;19.73;;;;;3.70;101406.00;;;;10428439;28;20206;-78
2022/12/03 11:10:29;;;;;;;38.63;18.67;;;;;3.70;101399.00;;;;10430643;28;20548;-78
2022/12/03 11:15:43;;;;;;;34.40;17.90;;;;;3.60;101388.00;;;;10421461;28;20190;-78
2022/12/03 11:20:44;;;;;;;42.93;19.60;;;;;3.60;101392.00;;;;10471191;28;20186;-79
2022/12/03 11:25:49;;;;;;;35.20;17.73;;;;;3.70;101388.00;;;;10426082;28;20205;-78
2022/12/03 11:30:52;;;;;;;34.93;18.77;;;;;3.70;101382.00;;;;10420742;28;20210;-78
2022/12/03 11:36:03;;;;;;;39.57;18.90;;;;;3.80;101384.00;;;;10476316;28;20201;-78
2022/12/03 11:42:00;;;;;;;40.07;18.97;;;;;4.10;101371.00;;;;10444730;28;20186;-78
2022/12/03 11:47:10;;;;;;;34.47;19.33;;;;;4.30;101370.00;;;;10391759;28;20207;-78
2022/12/03 11:52:26;;;;;;;36.77;18.27;;;;;4.20;101366.00;;;;10419043;28;20210;-78
2022/12/03 11:57:34;;;;;;;34.13;18.23;;;;;4.30;101357.00;;;;10431931;28;20201;-79
2022/12/03 12:02:36;;;;;;;34.37;17.37;;;;;4.30;101346.00;;;;10434520;28;20268;-79
2022/12/03 12:07:38;;;;;;;30.10;15.37;;;;;4.30;101335.00;;;;10455066;28;20229;-78
2022/12/03 12:12:43;;;;;;;30.23;17.17;;;;;4.20;101334.00;;;;10426301;28;20194;-79
2022/12/03 12:17:55;;;;;;;31.00;16.70;;;;;4.00;101331.00;;;;10445999;28;20231;-78
2022/12/03 12:23:19;;;;;;;29.20;16.10;;;;;4.00;101323.00;;;;10458954;28;20312;-78
2022/12/03 12:28:23;;;;;;;38.17;17.90;;;;;4.00;101314.00;;;;10456138;28;20756;-78
2022/12/03 12:33:25;;;;;;;29.40;16.13;;;;;4.10;101307.00;;;;10423668;28;20198;-78
2022/12/03 12:38:27;;;;;;;33.23;17.13;;;;;4.20;101305.00;;;;10483278;28;20194;-79
2022/12/03 12:43:31;;;;;;;24.70;13.70;;;;;4.10;101302.00;;;;10449672;28;20205;-79
2022/12/03 12:48:34;;;;;;;38.03;17.53;;;;;4.00;101293.00;;;;10474589;28;20211;-78
2022/12/03 12:53:37;;;;;;;35.80;16.63;;;;;4.00;101286.00;;;;10446075;28;20200;-78
2022/12/03 12:58:40;;;;;;;36.07;17.57;;;;;4.00;101291.00;;;;10474329;28;20227;-78
2022/12/03 13:03:42;;;;;;;34.97;18.10;;;;;4.00;101288.00;;;;10440729;28;20221;-78
2022/12/03 13:08:47;;;;;;;36.57;17.00;;;;;3.90;101291.00;;;;10447814;28;20224;-78
2022/12/03 13:13:50;;;;;;;35.23;18.50;;;;;3.80;101281.00;;;;10422533;28;20212;-78
2022/12/03 13:18:53;;;;;;;32.07;15.70;;;;;3.80;101279.00;;;;10451233;28;20189;-78
2022/12/03 13:23:56;;;;;;;38.50;18.03;;;;;3.70;101279.00;;;;10431020;28;20251;-78
2022/12/03 13:29:05;;;;;;;29.83;16.67;;;;;3.70;101263.00;;;;10431911;28;20198;-79
2022/12/03 13:34:20;;;;;;;31.53;16.10;;;;;3.80;101267.00;;;;10424500;28;20781;-78
2022/12/03 13:39:35;;;;;;;39.27;18.83;;;;;3.80;101261.00;;;;10467069;28;20182;-78
2022/12/03 13:44:44;;;;;;;35.53;16.57;;;;;3.70;101263.00;;;;10415154;28;20198;-78
2022/12/03 13:49:51;;;;;;;32.27;16.47;;;;;3.60;101260.00;;;;10415457;28;20210;-78
2022/12/03 13:54:55;;;;;;;35.17;17.03;;;;;3.50;101252.00;;;;10457420;28;20198;-78
2022/12/03 13:59:57;;;;;;;35.80;16.67;;;;;3.50;101261.00;;;;10415186;28;20229;-78
2022/12/03 14:04:59;;;;;;;32.83;16.23;;;;;3.30;101257.00;;;;10451631;28;20246;-78
2022/12/03 14:10:02;;;;;;;32.30;17.03;;;;;3.30;101252.00;;;;10476246;28;20193;-78
2022/12/03 14:15:05;;;;;;;34.90;16.60;;;;;3.30;101255.00;;;;10452732;28;20196;-78
2022/12/03 14:20:07;;;;;;;34.70;16.57;;;;;3.20;101252.00;;;;10451820;28;20182;-78
2022/12/03 14:25:10;;;;;;;32.60;16.70;;;;;3.10;101255.00;;;;10439721;28;20664;-78
2022/12/03 14:30:12;;;;;;;32.97;16.50;;;;;3.10;101248.00;;;;10459090;28;20195;-78
2022/12/03 14:35:14;;;;;;;29.30;15.27;;;;;3.00;101248.00;;;;10462568;28;20218;-78
2022/12/03 14:40:19;;;;;;;32.80;16.67;;;;;3.00;101241.00;;;;10442151;28;20182;-79
2022/12/03 14:45:27;;;;;;;35.23;17.10;;;;;2.90;101247.00;;;;10440526;28;20288;-78
2022/12/03 14:50:29;;;;;;;32.70;17.40;;;;;2.90;101241.00;;;;10461371;28;20256;-78
2022/12/03 14:55:31;;;;;;;32.83;16.57;;;;;2.90;101242.00;;;;10429106;28;20193;-78
2022/12/03 15:00:33;;;;;;;34.80;18.50;;;;;2.80;101246.00;;;;10475279;28;20697;-78
2022/12/03 15:05:34;;;;;;;38.17;17.67;;;;;2.80;101246.00;;;;10421584;28;20675;-78
2022/12/03 15:10:36;;;;;;;37.73;18.07;;;;;2.80;101243.00;;;;10447990;28;20206;-78
2022/12/03 15:15:38;;;;;;;36.80;18.97;;;;;2.70;101238.00;;;;10473904;28;20198;-78
2022/12/03 15:20:43;;;;;;;37.67;18.93;;;;;2.70;101242.00;;;;10450166;28;20600;-78
2022/12/03 15:25:45;;;;;;;38.90;19.07;;;;;2.70;101243.00;;;;10450695;28;20564;-77
2022/12/03 15:30:48;;;;;;;37.90;19.17;;;;;2.60;101249.00;;;;10442905;28;20263;-78
2022/12/03 15:35:50;;;;;;;41.50;19.53;;;;;2.60;101243.00;;;;10459383;28;20214;-77
2022/12/03 15:40:52;;;;;;;35.03;18.50;;;;;2.60;101231.00;;;;10458859;28;20194;-78
2022/12/03 15:45:54;;;;;;;39.43;19.07;;;;;2.60;101245.00;;;;10471782;28;20198;-78
2022/12/03 15:50:58;;;;;;;37.27;17.93;;;;;2.60;101230.00;;;;10475990;28;20229;-78
2022/12/03 15:56:00;;;;;;;39.70;18.23;;;;;2.50;101238.00;;;;10456825;28;20189;-78
2022/12/03 16:01:03;;;;;;;39.60;19.23;;;;;2.50;101236.00;;;;10454505;28;20289;-78
2022/12/03 16:06:05;;;;;;;38.03;17.63;;;;;2.50;101230.00;;;;10455264;28;20276;-77
2022/12/03 16:11:07;;;;;;;43.67;20.77;;;;;2.50;101239.00;;;;10441903;28;20264;-78
2022/12/03 16:16:09;;;;;;;36.03;16.20;;;;;2.50;101235.00;;;;10454176;28;20239;-78
2022/12/03 16:21:11;;;;;;;39.07;19.53;;;;;2.50;101226.00;;;;10454884;28;20186;-77
2022/12/03 16:26:13;;;;;;;38.90;18.40;;;;;2.50;101226.00;;;;10472686;28;20233;-78
2022/12/03 16:31:15;;;;;;;43.03;19.90;;;;;2.50;101229.00;;;;10456170;28;20201;-78
2022/12/03 16:36:16;;;;;;;39.50;19.40;;;;;2.50;101222.00;;;;10473735;28;20190;-78
2022/12/03 16:41:18;;;;;;;40.93;21.27;;;;;2.50;101221.00;;;;10457217;28;20190;-78
2022/12/03 16:46:24;;;;;;;41.07;19.93;;;;;2.40;101224.00;;;;10450814;28;20222;-78
2022/12/03 16:51:29;;;;;;;47.13;21.10;;;;;2.40;101226.00;;;;10452086;28;20205;-78
2022/12/03 16:56:30;;;;;;;43.50;21.83;;;;;2.40;101218.00;;;;10459450;28;20185;-78
2022/12/03 17:01:32;;;;;;;40.37;19.93;;;;;2.40;101210.00;;;;10439351;28;20209;-78
2022/12/03 17:06:34;;;;;;;48.67;22.03;;;;;2.40;101217.00;;;;10457525;28;20778;-78
2022/12/03 17:11:36;;;;;;;49.07;22.70;;;;;2.40;101209.00;;;;10456971;28;20198;-78
2022/12/03 17:16:38;;;;;;;45.87;22.43;;;;;2.40;101209.00;;;;10457685;28;20204;-78
2022/12/03 17:21:40;;;;;;;42.70;20.47;;;;;2.30;101210.00;;;;10470258;28;20220;-78
2022/12/03 17:26:43;;;;;;;42.13;20.07;;;;;2.30;101205.00;;;;10449632;28;20197;-78
2022/12/03 17:31:45;;;;;;;42.97;20.90;;;;;2.30;101211.00;;;;10440530;28;20691;-77
2022/12/03 17:36:47;;;;;;;42.43;20.73;;;;;2.30;101212.00;;;;10453258;28;20611;-78
2022/12/03 17:41:49;;;;;;;45.60;20.97;;;;;2.30;101199.00;;;;10455589;28;20185;-78
2022/12/03 17:46:51;;;;;;;40.57;20.67;;;;;2.30;101203.00;;;;10467063;28;20621;-78
2022/12/03 17:51:53;;;;;;;42.73;20.43;;;;;2.20;101206.00;;;;10454654;28;20232;-78
2022/12/03 17:56:55;;;;;;;49.07;23.67;;;;;2.30;101208.00;;;;10459599;28;20239;-78
2022/12/03 18:01:57;;;;;;;45.60;20.83;;;;;2.30;101201.00;;;;10455916;28;20419;-78
2022/12/03 18:06:59;;;;;;;49.23;22.87;;;;;2.20;101200.00;;;;10450597;28;20193;-78
2022/12/03 18:12:03;;;;;;;46.57;21.63;;;;;2.20;101214.00;;;;10455008;28;20307;-78
2022/12/03 18:17:05;;;;;;;50.10;22.43;;;;;2.20;101211.00;;;;10442036;28;20204;-78
2022/12/03 18:22:07;;;;;;;48.10;21.97;;;;;2.10;101200.00;;;;10436076;28;20201;-78
2022/12/03 18:27:09;;;;;;;54.63;22.70;;;;;2.10;101209.00;;;;10409777;28;20212;-77
2022/12/03 18:32:11;;;;;;;47.00;21.90;;;;;2.10;101207.00;;;;10487206;28;20209;-78
2022/12/03 18:37:31;;;;;;;56.60;21.97;;;;;2.10;101209.00;;;;10473337;28;20276;-77
2022/12/03 18:42:33;;;;;;;49.20;23.07;;;;;2.10;101192.00;;;;10444102;28;20189;-78
2022/12/03 18:47:35;;;;;;;59.47;25.53;;;;;2.00;101190.00;;;;10429307;28;20721;-78
2022/12/03 18:52:37;;;;;;;55.53;24.37;;;;;2.00;101183.00;;;;10462399;28;20210;-78
2022/12/03 18:57:39;;;;;;;59.10;24.13;;;;;2.00;101170.00;;;;10446378;28;20206;-78
2022/12/03 19:02:41;;;;;;;53.23;22.90;;;;;2.00;101170.00;;;;10456066;28;20688;-78
2022/12/03 19:08:11;;;;;;;50.07;23.03;;;;;2.00;101174.00;;;;10429114;28;20285;-78
2022/12/03 19:13:13;;;;;;;59.20;24.70;;;;;2.00;101172.00;;;;10456786;28;20210;-78
2022/12/03 19:18:15;;;;;;;53.07;22.30;;;;;1.90;101180.00;;;;10445426;28;20607;-78
2022/12/03 19:23:17;;;;;;;53.13;23.53;;;;;1.90;101176.00;;;;10454719;28;20201;-78
2022/12/03 19:28:19;;;;;;;53.83;23.30;;;;;1.90;101175.00;;;;10442284;28;20181;-78
2022/12/03 19:33:20;;;;;;;44.37;19.43;;;;;1.90;101172.00;;;;10457802;28;20202;-78
2022/12/03 19:38:29;;;;;;;54.93;23.30;;;;;1.90;101172.00;;;;10428908;28;20190;-78
2022/12/03 19:43:32;;;;;;;46.90;22.33;;;;;1.90;101162.00;;;;10431573;28;20197;-78
2022/12/03 19:48:36;;;;;;;52.73;20.57;;;;;1.90;101176.00;;;;10441341;28;20204;-78
2022/12/03 19:53:39;;;;;;;44.20;19.87;;;;;1.90;101165.00;;;;10410825;28;20684;-78
2022/12/03 19:58:44;;;;;;;43.87;21.13;;;;;1.90;101169.00;;;;10425540;28;20211;-78
2022/12/03 20:03:48;;;;;;;48.27;21.23;;;;;1.90;101162.00;;;;10445216;28;20213;-78
2022/12/03 20:08:54;;;;;;;48.43;21.43;;;;;1.90;101159.00;;;;10437299;28;20556;-78
2022/12/03 20:13:59;;;;;;;60.70;25.60;;;;;1.90;101159.00;;;;10392485;28;20198;-78
2022/12/03 20:19:04;;;;;;;48.90;20.37;;;;;1.90;101161.00;;;;10433748;28;21089;-78
2022/12/03 20:24:08;;;;;;;49.40;22.13;;;;;1.90;101168.00;;;;10445776;28;20296;-78
2022/12/03 20:29:11;;;;;;;47.10;20.97;;;;;1.80;101163.00;;;;10453696;28;20209;-78
2022/12/03 20:34:12;;;;;;;48.60;21.37;;;;;1.80;101150.00;;;;10443414;28;20191;-78
2022/12/03 20:39:14;;;;;;;48.10;21.90;;;;;1.80;101154.00;;;;10413227;28;20194;-78
2022/12/03 20:44:16;;;;;;;49.13;20.60;;;;;1.80;101151.00;;;;10441980;28;20260;-78
2022/12/03 20:49:18;;;;;;;43.53;19.67;;;;;1.80;101149.00;;;;10451968;28;20206;-78
2022/12/03 20:54:20;;;;;;;48.37;20.87;;;;;1.80;101153.00;;;;10450588;28;20185;-78
2022/12/03 20:59:22;;;;;;;50.27;21.07;;;;;1.80;101152.00;;;;10440108;28;20182;-78
2022/12/03 21:04:23;;;;;;;43.60;19.83;;;;;1.80;101158.00;;;;10437481;28;20308;-78
2022/12/03 21:09:26;;;;;;;43.07;17.90;;;;;1.70;101142.00;;;;10455530;28;20702;-78
2022/12/03 21:14:28;;;;;;;44.80;21.70;;;;;1.70;101146.00;;;;10455304;28;20194;-78
2022/12/03 21:19:29;;;;;;;46.33;20.40;;;;;1.70;101136.00;;;;10449074;28;20182;-77
2022/12/03 21:24:32;;;;;;;49.83;22.07;;;;;1.60;101142.00;;;;10437944;28;20201;-78
2022/12/03 21:29:34;;;;;;;44.73;19.73;;;;;1.40;101138.00;;;;10461573;28;20236;-78
2022/12/03 21:34:36;;;;;;;40.67;18.40;;;;;1.30;101128.00;;;;10437889;28;20193;-78
2022/12/03 21:39:38;;;;;;;48.13;21.77;;;;;1.20;101143.00;;;;10440951;28;20781;-78
2022/12/03 21:44:40;;;;;;;48.33;21.07;;;;;1.10;101125.00;;;;10420368;28;20260;-78
2022/12/03 21:49:42;;;;;;;51.40;20.60;;;;;1.10;101126.00;;;;10447430;28;20198;-78
2022/12/03 21:54:44;;;;;;;49.07;21.80;;;;;1.00;101139.00;;;;10458786;28;20556;-78
2022/12/03 21:59:46;;;;;;;54.30;21.00;;;;;1.00;101141.00;;;;10440358;28;20189;-78
2022/12/03 22:04:49;;;;;;;44.17;19.13;;;;;1.00;101141.00;;;;10437827;28;20225;-78
2022/12/03 22:09:50;;;;;;;46.23;20.30;;;;;0.90;101142.00;;;;10467527;28;20702;-78
2022/12/03 22:14:55;;;;;;;49.80;19.73;;;;;0.80;101130.00;;;;10470793;28;20232;-78
2022/12/03 22:19:57;;;;;;;45.23;18.80;;;;;0.80;101132.00;;;;10449257;28;20190;-78
2022/12/03 22:24:59;;;;;;;47.17;18.50;;;;;0.70;101146.00;;;;10440426;28;20213;-78
2022/12/03 22:30:02;;;;;;;48.13;20.57;;;;;0.70;101139.00;;;;10456074;28;20663;-78
2022/12/03 22:35:05;;;;;;;52.37;20.80;;;;;0.60;101131.00;;;;10439077;28;20190;-78
2022/12/03 22:40:07;;;;;;;44.97;19.73;;;;;0.70;101133.00;;;;10455948;28;20193;-78
2022/12/03 22:45:09;;;;;;;46.43;20.13;;;;;0.80;101123.00;;;;10439256;28;20333;-78
2022/12/03 22:50:10;;;;;;;39.60;18.40;;;;;0.90;101122.00;;;;10463974;28;20844;-78
2022/12/03 22:55:12;;;;;;;49.17;18.07;;;;;0.80;101122.00;;;;10455586;28;20568;-78
2022/12/03 23:00:30;;;;;;;51.33;19.23;;;;;0.80;101127.00;;;;10427644;28;20287;-78
2022/12/03 23:05:35;;;;;;;48.00;18.90;;;;;0.70;101121.00;;;;10459320;28;20557;-78
2022/12/03 23:10:40;;;;;;;49.50;19.13;;;;;0.60;101118.00;;;;10426292;28;20208;-78
2022/12/03 23:15:49;;;;;;;41.17;17.80;;;;;0.50;101109.00;;;;10480025;28;20762;-78
2022/12/03 23:20:54;;;;;;;43.97;18.63;;;;;0.40;101111.00;;;;10452296;28;20192;-78
2022/12/03 23:26:05;;;;;;;43.10;17.90;;;;;0.30;101114.00;;;;10488007;28;20590;-78
2022/12/03 23:31:22;;;;;;;42.40;18.20;;;;;0.10;101100.00;;;;10452127;28;20399;-78
2022/12/03 23:36:26;;;;;;;44.90;17.90;;;;;0.00;101100.00;;;;10480775;28;20659;-78
2022/12/03 23:41:28;;;;;;;47.10;19.30;;;;;-0.10;101109.00;;;;10460103;28;20200;-78
2022/12/03 23:46:30;;;;;;;44.10;17.80;;;;;-0.20;101101.00;;;;10458793;28;20197;-78
2022/12/03 23:51:32;;;;;;;42.03;16.77;;;;;-0.20;101101.00;;;;10472823;28;20201;-78
2022/12/03 23:56:33;;;;;;;51.17;17.60;;;;;-0.30;101099.00;;;;10479084;28;20216;-78
